Latest Coastal Weather Observations for Spring Bay

IDT60701

Issued at 5:45 am EST Saturday 20 September 2014 (issued every 10 minutes, with the page automatically refreshed every 10 minutes)

About coastal observations | Map of coastal stations | Coastal observations for TAS | Marine services | Other Formats
Station Details ID: 092133 Name: SPRING BAY NTC AWS Lat: -42.55 Lon: 147.93 Height: 0.0 m
Data from the previous 72 hours. | See also: Recent months for locations in Tasmania
Date/Time
EST
Temp

°C
Wind Pressure Rain
since 9am
mm
Weather Cloud Vis
km
Sea
Height
m
Swell
Dir
 
Speed
knots
Gust
knots
hPa Trend Height
m
Period
s
Dir
20/05:30am 11.1 WSW 6 9 1020.8 - - - - - - - - -
20/05:00am 10.9 SW 3 7 1020.3 - - - - - - - - -
20/04:30am 10.8 WSW 7 12 1019.9 - - - - - - - - -
20/04:00am 10.7 S 8 12 1019.7 - - - - - - - - -
20/03:30am 11.2 S 7 11 1019.4 - - - - - - - - -
20/03:00am 10.1 SSW 6 8 1018.9 - - - - - - - - -
20/02:30am 10.6 SW 5 8 1019.0 - - - - - - - - -
20/02:00am 10.8 SSW 5 6 1019.0 - - - - - - - - -
20/01:30am 10.8 WSW 5 8 1019.0 - - - - - - - - -
20/01:00am 11.2 SSW 4 7 1019.3 - - - - - - - - -
20/12:30am 11.4 SW 10 13 1019.0 - - - - - - - - -
20/12:00am 11.4 SW 9 13 1018.8 - - - - - - - - -
 
Date/Time
EST
Temp

°C
Wind Pressure Rain
since 9am
mm
Weather Cloud Vis
km
Sea
Height
m
Swell
Dir
 
Speed
knots
Gust
knots
hPa Trend Height
m
Period
s
Dir
19/11:30pm 11.6 SSW 10 13 1018.8 - - - - - - - - -
19/11:00pm 11.6 SSW 15 19 1018.6 - - - - - - - - -
19/10:30pm 11.9 SSW 18 25 1018.7 - - - - - - - - -
19/10:22pm 12.2 SSW 15 25 1018.6 - - - - - - - - -
19/10:00pm 12.2 SSW 12 15 1018.2 - - - - - - - - -
19/09:30pm 12.2 SW 10 13 1018.0 - - - - - - - - -
19/09:00pm 12.3 SSW 13 16 1017.9 - - - - - - - - -
19/08:30pm 12.5 SSW 12 17 1017.8 - - - - - - - - -
19/08:00pm 12.8 SW 14 22 1017.5 - - - - - - - - -
19/07:30pm 13.0 SW 8 15 1017.1 - - - - - - - - -
19/07:00pm 13.1 SW 8 12 1016.6 - - - - - - - - -
19/06:30pm 13.5 SW 8 13 1016.3 - - - - - - - - -
19/06:00pm 13.8 SSW 10 16 1016.0 - - - - - - - - -
19/05:30pm 14.1 SW 15 25 1015.8 - - - - - - - - -
19/05:00pm 14.6 WSW 17 28 1015.1 - - - - - - - - -
19/04:54pm 14.9 SW 15 28 1015.1 - - - - - - - - -
19/04:30pm 15.4 SW 18 28 1014.6 - - - - - - - - -
19/04:00pm 15.0 WSW 18 26 1014.3 - - - - - - - - -
19/03:30pm 15.2 WSW 22 30 1014.1 - - - - - - - - -
19/03:06pm 15.1 W 21 28 1014.0 - - - - - - - - -
19/03:00pm 15.2 SW 16 22 1014.0 - - - - - - - - -
19/02:30pm 15.0 SW 21 31 1013.8 - - - - - - - - -
19/02:00pm 15.0 SW 22 33 1013.6 - - - - - - - - -
19/01:51pm 15.0 SW 23 33 1013.7 - - - - - - - - -
19/01:30pm 14.8 SW 21 29 1013.9 - - - - - - - - -
19/01:00pm 14.4 WSW 22 32 1013.9 - - - - - - - - -
19/12:34pm 14.4 SW 22 32 1014.2 - - - - - - - - -
19/12:30pm 14.6 SW 24 33 1014.1 - - - - - - - - -
19/12:00pm 14.5 WSW 20 28 1014.1 - - - - - - - - -
19/11:49am 14.6 SW 19 30 1014.2 - - - - - - - - -
19/11:30am 14.2 SW 19 25 1014.3 - - - - - - - - -
19/11:00am 13.8 WSW 14 22 1014.3 - - - - - - - - -
19/10:30am 14.0 SW 14 24 1014.5 - - - - - - - - -
19/10:00am 13.6 SSW 17 23 1014.6 - - - - - - - - -
19/09:30am 13.2 SSW 18 24 1014.7 - - - - - - - - -
19/09:00am 12.9 SSW 13 17 1014.6 - - - - - - - - -
19/08:30am 12.7 SSW 15 23 1014.6 - - - - - - - - -
19/08:00am 12.4 SSW 11 15 1014.5 - - - - - - - - -
19/07:30am 11.9 SSW 10 14 1014.4 - - - - - - - - -
19/07:00am 11.7 SW 11 16 1013.9 - - - - - - - - -
19/06:30am 11.5 SSW 12 16 1013.6 - - - - - - - - -
19/06:00am 11.7 SW 16 20 1013.3 - - - - - - - - -
19/05:30am 11.8 SW 15 18 1012.9 - - - - - - - - -
19/05:00am 11.8 SW 13 17 1012.6 - - - - - - - - -
19/04:30am 11.7 SW 14 17 1012.5 - - - - - - - - -
19/04:00am 11.7 SSW 14 19 1012.4 - - - - - - - - -
19/03:30am 11.8 SW 17 22 1012.3 - - - - - - - - -
19/03:00am 11.3 WSW 10 14 1012.1 - - - - - - - - -
19/02:30am 10.9 WSW 8 12 1012.2 - - - - - - - - -
19/02:00am 10.9 W 7 11 1012.6 - - - - - - - - -
19/01:30am 10.7 WSW 9 14 1013.0 - - - - - - - - -
19/01:00am 10.5 W 10 15 1013.3 - - - - - - - - -
19/12:30am 10.6 W 12 18 1013.5 - - - - - - - - -
19/12:00am 10.3 WNW 6 8 1013.7 - - - - - - - - -
 
Date/Time
EST
Temp

°C
Wind Pressure Rain
since 9am
mm
Weather Cloud Vis
km
Sea
Height
m
Swell
Dir
 
Speed
knots
Gust
knots
hPa Trend Height
m
Period
s
Dir
18/11:30pm 10.3 NW 7 13 1013.8 - - - - - - - - -
18/11:00pm 10.5 SW 15 21 1014.0 - - - - - - - - -
18/10:30pm 10.5 SW 16 22 1014.1 - - - - - - - - -
18/10:00pm 10.3 WSW 9 14 1014.3 - - - - - - - - -
18/09:30pm 10.5 WSW 9 12 1014.7 - - - - - - - - -
18/09:00pm 10.5 WSW 6 11 1015.1 - - - - - - - - -
18/08:30pm 10.6 WSW 4 8 1015.1 - - - - - - - - -
18/08:00pm 10.6 W 7 10 1015.2 - - - - - - - - -
18/07:30pm 10.4 SSW 10 14 1015.1 - - - - - - - - -
18/07:00pm 10.3 SSW 17 25 1015.1 - - - - - - - - -
18/06:30pm 10.7 SSW 17 25 1015.0 - - - - - - - - -
18/06:27pm 10.8 SSW 16 25 1015.0 - - - - - - - - -
18/06:00pm 11.3 S 10 14 1014.6 - - - - - - - - -
18/05:30pm 11.5 SSW 14 22 1014.3 - - - - - - - - -
18/05:00pm 11.5 SSW 10 14 1013.8 - - - - - - - - -
18/04:30pm 11.5 SSW 15 19 1013.6 - - - - - - - - -
18/04:00pm 10.9 SW 12 17 1013.5 - - - - - - - - -
18/03:30pm 10.6 SSW 15 21 1013.7 - - - - - - - - -
18/03:00pm 9.7 SSW 13 19 1014.1 - - - - - - - - -
18/02:33pm 10.6 SSW 16 28 1013.7 - - - - - - - - -
18/02:30pm 10.7 SSW 17 23 1013.6 - - - - - - - - -
18/02:00pm 12.1 SSW 17 23 1012.8 - - - - - - - - -
18/01:38pm 12.6 WSW 16 26 1012.5 - - - - - - - - -
18/01:30pm 12.5 WSW 14 20 1012.7 - - - - - - - - -
18/01:27pm 12.4 W 14 20 1012.7 - - - - - - - - -
18/01:00pm 12.3 SW 20 28 1012.8 - - - - - - - - -
18/12:30pm 12.4 WSW 17 26 1013.2 - - - - - - - - -
18/12:00pm 12.0 SW 11 20 1013.8 - - - - - - - - -
18/11:30am 11.4 SSW 9 14 1014.4 - - - - - - - - -
18/11:00am 10.5 SSW 14 19 1015.0 - - - - - - - - -
18/10:30am 9.6 WSW 11 19 1015.1 - - - - - - - - -
18/10:00am 9.5 SSW 14 19 1015.3 - - - - - - - - -
18/09:45am 9.4 SW 15 25 1015.4 - - - - - - - - -
18/09:30am 8.9 SW 13 19 1015.5 - - - - - - - - -
18/09:00am 8.7 WSW 13 17 1015.1 - - - - - - - - -
18/08:30am 8.5 SW 16 22 1014.9 - - - - - - - - -
18/08:07am 8.8 SW 17 27 1014.6 - - - - - - - - -
18/08:00am 8.6 SW 15 23 1014.5 - - - - - - - - -
18/07:30am 8.3 SSW 18 22 1014.2 - - - - - - - - -
18/07:16am 8.5 SSW 15 22 1014.0 - - - - - - - - -
18/07:00am 8.3 SW 8 11 1013.5 - - - - - - - - -
18/06:30am 8.5 SW 11 18 1013.0 - - - - - - - - -
18/06:00am 8.3 SW 9 12 1012.6 - - - - - - - - -
18/05:30am 8.4 SW 13 17 1012.0 - - - - - - - - -
18/05:00am 8.5 SW 14 22 1011.5 - - - - - - - - -
18/04:30am 8.6 SSW 15 19 1011.3 - - - - - - - - -
18/04:00am 8.6 SSW 18 22 1010.9 - - - - - - - - -
18/03:30am 8.1 SW 17 21 1010.6 - - - - - - - - -
18/03:00am 8.3 SW 18 24 1010.1 - - - - - - - - -
18/02:30am 7.6 SW 14 22 1010.0 - - - - - - - - -
18/02:00am 7.9 SW 18 25 1009.8 - - - - - - - - -
18/01:30am 7.7 SW 19 28 1009.3 - - - - - - - - -
18/01:00am 8.0 SW 23 30 1009.1 - - - - - - - - -
18/12:30am 8.0 SW 19 25 1008.4 - - - - - - - - -
18/12:19am 8.1 SW 18 28 1008.3 - - - - - - - - -
18/12:00am 8.2 SW 19 26 1007.9 - - - - - - - - -
 
Date/Time
EST
Temp

°C
Wind Pressure Rain
since 9am
mm
Weather Cloud Vis
km
Sea
Height
m
Swell
Dir
 
Speed
knots
Gust
knots
hPa Trend Height
m
Period
s
Dir
17/11:30pm 8.2 SW 19 26 1007.7 - - - - - - - - -
17/11:16pm 8.3 SW 17 29 1007.6 - - - - - - - - -
17/11:00pm 8.1 SW 16 22 1007.3 - - - - - - - - -
17/10:30pm 7.7 WSW 14 19 1007.1 - - - - - - - - -
17/10:00pm 7.8 WSW 14 21 1007.1 - - - - - - - - -
17/09:30pm 7.8 SW 15 23 1007.0 - - - - - - - - -
17/09:00pm 8.1 SW 13 19 1006.6 - - - - - - - - -
17/08:30pm 8.4 SW 12 19 1006.5 - - - - - - - - -
17/08:00pm 8.8 SW 17 21 1006.1 - - - - - - - - -
17/07:30pm 9.3 SW 18 26 1005.3 - - - - - - - - -
17/07:00pm 9.5 SW 17 26 1005.1 - - - - - - - - -
17/06:37pm 9.8 SW 21 32 1004.8 - - - - - - - - -
17/06:30pm 9.8 SW 20 29 1004.7 - - - - - - - - -
17/06:00pm 10.2 SW 28 36 1004.4 - - - - - - - - -
17/05:30pm 10.2 SSW 23 33 1003.9 - - - - - - - - -
17/05:00pm 9.7 SSW 19 30 1003.7 - - - - - - - - -
17/04:34pm 10.2 S 21 31 1003.2 - - - - - - - - -
17/04:30pm 10.0 SSW 23 32 1003.2 - - - - - - - - -
17/04:00pm 10.7 SSW 21 31 1002.7 - - - - - - - - -

Other Formats:

Comma delimited format used in spreadsheet applications
http://www.bom.gov.au/fwo/IDT60701/IDT60701.95987.axf

JavaScript Object Notation format (JSON) in row-major order
http://www.bom.gov.au/fwo/IDT60701/IDT60701.95987.json